KMOT

Minot International Airport

Minot, North Dakota, USA
KMOT 201738Z 2018/2118 16012G21KT P6SM SKC FM202200 14011KT P6SM FEW250 FM210600 17006KT P6SM FEW150 FM211700 17014G23KT P6SM FEW100
Issued Valid From Valid To
Apr-20 @ 17:38 UTC
(49 minutes ago)
Apr-20 @ 18:00 UTC
(27 minutes ago)
Apr-21 @ 18:00 UTC
(in 24 hours)
Apr-20 @ 18:00 to Apr-20 @ 22:00
KMOT 201738Z 2018/2118 16012G21KT P6SM SKC
Wind Visibility Clouds
160° at 12 knots
 Gusting to 21 knots
Greater than 6 miles
  • Clear skies
From Apr-20 @ 22:00 to Apr-21 @ 06:00
FM202200 14011KT P6SM FEW250
Wind Visibility Clouds
140° at 11 knots Greater than 6 miles
  • Few at 25,000' AGL
From Apr-21 @ 06:00 to Apr-21 @ 17:00
FM210600 17006KT P6SM FEW150
Wind Visibility Clouds
170° at 6 knots Greater than 6 miles
  • Few at 15,000' AGL
From Apr-21 @ 17:00 to Apr-21 @ 18:00
FM211700 17014G23KT P6SM FEW100
Wind Visibility Clouds
170° at 14 knots
 Gusting to 23 knots
Greater than 6 miles
  • Few at 10,000' AGL
KMOT 201738Z 2018/2118 16012G21KT P6SM SKC FM202200 14011KT P6SM FEW250 FM210600 17006KT P6SM FEW150 FM211700 17014G23KT P6SM FEW100
Issued Apr-20 @ 17:38 UTC
(49 minutes ago)
Valid From Apr-20 @ 18:00 UTC
(27 minutes ago)
Valid To Apr-21 @ 18:00 UTC
(in 24 hours)
Apr-20 @ 18:00 - Apr-20 @ 22:00
Wind Visibility
160° at 12 knots
 Gusting to 21 knots
Greater than 6 miles
Clouds
  • Clear skies
From Apr-20 @ 22:00 - Apr-21 @ 06:00
Wind Visibility
140° at 11 knots Greater than 6 miles
Clouds
  • Few at 25,000' AGL
From Apr-21 @ 06:00 - Apr-21 @ 17:00
Wind Visibility
170° at 6 knots Greater than 6 miles
Clouds
  • Few at 15,000' AGL
From Apr-21 @ 17:00 - Apr-21 @ 18:00
Wind Visibility
170° at 14 knots
 Gusting to 23 knots
Greater than 6 miles
Clouds
  • Few at 10,000' AGL